sensor_id;sensor_type;location;lat;lon;timestamp;pressure;altitude;pressure_sealevel;temperature;humidity
43217;BME280;60511;42.686;23.300;2023-02-28T00:01:50;95149.34;;;22.12;41.04
43217;BME280;60511;42.686;23.300;2023-02-28T00:03:50;95153.63;;;22.13;42.39
43217;BME280;60511;42.686;23.300;2023-02-28T00:05:51;95092.16;;;21.52;41.53
43217;BME280;60511;42.686;23.300;2023-02-28T00:07:51;95135.47;;;21.38;45.03
43217;BME280;60511;42.686;23.300;2023-02-28T00:09:52;95128.63;;;21.41;45.46
43217;BME280;60511;42.686;23.300;2023-02-28T00:11:52;95158.03;;;21.76;43.54
43217;BME280;60511;42.686;23.300;2023-02-28T00:13:53;95131.38;;;21.83;42.39
43217;BME280;60511;42.686;23.300;2023-02-28T00:16:04;95175.16;;;22.01;43.68
43217;BME280;60511;42.686;23.300;2023-02-28T00:18:05;95156.75;;;22.03;43.23
43217;BME280;60511;42.686;23.300;2023-02-28T00:20:06;95140.56;;;21.82;44.28
43217;BME280;60511;42.686;23.300;2023-02-28T00:22:08;95171.88;;;21.74;44.80
43217;BME280;60511;42.686;23.300;2023-02-28T00:24:08;95192.28;;;21.96;42.24
43217;BME280;60511;42.686;23.300;2023-02-28T00:26:09;95171.53;;;21.97;42.63
43217;BME280;60511;42.686;23.300;2023-02-28T00:28:09;95160.25;;;21.82;43.36
43217;BME280;60511;42.686;23.300;2023-02-28T00:30:13;95133.16;;;21.58;42.91
43217;BME280;60511;42.686;23.300;2023-02-28T00:32:14;95178.31;;;22.03;42.00
43217;BME280;60511;42.686;23.300;2023-02-28T00:34:14;95163.56;;;21.79;43.43
43217;BME280;60511;42.686;23.300;2023-02-28T00:36:14;95171.41;;;21.93;42.80
43217;BME280;60511;42.686;23.300;2023-02-28T00:38:15;95159.31;;;21.78;44.02
43217;BME280;60511;42.686;23.300;2023-02-28T00:40:16;95103.47;;;21.16;44.00
43217;BME280;60511;42.686;23.300;2023-02-28T00:42:16;95167.81;;;21.59;42.70
43217;BME280;60511;42.686;23.300;2023-02-28T00:44:17;95186.22;;;21.57;45.94
43217;BME280;60511;42.686;23.300;2023-02-28T00:46:17;95184.34;;;21.79;42.85
43217;BME280;60511;42.686;23.300;2023-02-28T00:48:18;95138.03;;;21.64;42.89
43217;BME280;60511;42.686;23.300;2023-02-28T00:50:19;95160.03;;;21.87;41.54
43217;BME280;60511;42.686;23.300;2023-02-28T00:52:20;95139.25;;;21.67;42.07
43217;BME280;60511;42.686;23.300;2023-02-28T00:54:22;95175.34;;;21.96;41.36
43217;BME280;60511;42.686;23.300;2023-02-28T00:56:23;95192.03;;;21.89;42.33
43217;BME280;60511;42.686;23.300;2023-02-28T00:58:23;95168.16;;;22.00;41.82
43217;BME280;60511;42.686;23.300;2023-02-28T01:00:23;95146.63;;;21.79;41.17
43217;BME280;60511;42.686;23.300;2023-02-28T01:02:24;94988.19;;;20.97;41.81
43217;BME280;60511;42.686;23.300;2023-02-28T01:04:24;94976.41;;;20.80;42.05
43217;BME280;60511;42.686;23.300;2023-02-28T01:06:25;95168.53;;;22.11;40.68
43217;BME280;60511;42.686;23.300;2023-02-28T01:08:26;95173.75;;;22.16;41.50
43217;BME280;60511;42.686;23.300;2023-02-28T01:10:27;95167.25;;;21.96;43.40
43217;BME280;60511;42.686;23.300;2023-02-28T01:12:31;95157.25;;;21.96;43.26
43217;BME280;60511;42.686;23.300;2023-02-28T01:14:31;95142.41;;;21.69;44.37
43217;BME280;60511;42.686;23.300;2023-02-28T01:16:32;95173.25;;;21.80;42.64
43217;BME280;60511;42.686;23.300;2023-02-28T01:18:32;95167.97;;;21.63;44.24
43217;BME280;60511;42.686;23.300;2023-02-28T01:20:32;95157.19;;;21.63;44.16
43217;BME280;60511;42.686;23.300;2023-02-28T01:22:34;95178.59;;;21.59;43.35
43217;BME280;60511;42.686;23.300;2023-02-28T01:24:35;95177.47;;;21.31;46.61
43217;BME280;60511;42.686;23.300;2023-02-28T01:26:35;95069.00;;;20.79;44.17
43217;BME280;60511;42.686;23.300;2023-02-28T01:28:36;95158.56;;;21.48;44.58
43217;BME280;60511;42.686;23.300;2023-02-28T01:30:36;95143.00;;;21.24;45.50
43217;BME280;60511;42.686;23.300;2023-02-28T01:32:37;95144.72;;;21.28;45.81
43217;BME280;60511;42.686;23.300;2023-02-28T01:34:37;95127.88;;;21.11;47.05
43217;BME280;60511;42.686;23.300;2023-02-28T01:36:38;95161.28;;;21.10;47.03
43217;BME280;60511;42.686;23.300;2023-02-28T01:38:39;95162.03;;;21.19;47.45
43217;BME280;60511;42.686;23.300;2023-02-28T01:40:39;95035.19;;;20.31;46.85
43217;BME280;60511;42.686;23.300;2023-02-28T01:42:40;95119.59;;;20.86;48.06
43217;BME280;60511;42.686;23.300;2023-02-28T01:51:07;95159.41;;;21.01;47.59
43217;BME280;60511;42.686;23.300;2023-02-28T01:53:13;95195.66;;;21.13;46.45
43217;BME280;60511;42.686;23.300;2023-02-28T01:55:16;95172.00;;;21.18;45.82
43217;BME280;60511;42.686;23.300;2023-02-28T01:57:23;95050.91;;;20.50;46.69
43217;BME280;60511;42.686;23.300;2023-02-28T01:59:29;95168.00;;;21.24;46.31
43217;BME280;60511;42.686;23.300;2023-02-28T02:01:30;95179.00;;;21.49;44.95
43217;BME280;60511;42.686;23.300;2023-02-28T02:03:31;95182.97;;;21.52;44.08
43217;BME280;60511;42.686;23.300;2023-02-28T02:05:31;95170.34;;;21.64;44.17
43217;BME280;60511;42.686;23.300;2023-02-28T02:07:35;95199.19;;;21.64;43.40
43217;BME280;60511;42.686;23.300;2023-02-28T02:09:35;95176.84;;;21.63;44.51
43217;BME280;60511;42.686;23.300;2023-02-28T02:11:36;95166.53;;;21.65;44.56
43217;BME280;60511;42.686;23.300;2023-02-28T02:18:40;95160.75;;;21.97;43.66
43217;BME280;60511;42.686;23.300;2023-02-28T02:21:12;95161.06;;;21.95;44.35
43217;BME280;60511;42.686;23.300;2023-02-28T02:25:56;95028.47;;;20.84;43.96
43217;BME280;60511;42.686;23.300;2023-02-28T02:37:24;95159.75;;;22.01;43.80
43217;BME280;60511;42.686;23.300;2023-02-28T02:39:48;95181.50;;;21.96;43.73
43217;BME280;60511;42.686;23.300;2023-02-28T02:41:53;95160.63;;;21.72;45.77
43217;BME280;60511;42.686;23.300;2023-02-28T02:46:31;95184.75;;;21.69;46.09
43217;BME280;60511;42.686;23.300;2023-02-28T02:48:34;95170.19;;;21.61;44.73
43217;BME280;60511;42.686;23.300;2023-02-28T02:50:41;95160.03;;;21.66;44.67
43217;BME280;60511;42.686;23.300;2023-02-28T02:52:50;95110.84;;;21.27;45.59
43217;BME280;60511;42.686;23.300;2023-02-28T02:54:54;95153.97;;;21.49;43.55
43217;BME280;60511;42.686;23.300;2023-02-28T02:56:59;95171.13;;;21.65;46.05
43217;BME280;60511;42.686;23.300;2023-02-28T02:59:04;95156.13;;;21.55;47.03
43217;BME280;60511;42.686;23.300;2023-02-28T03:01:07;95177.88;;;21.50;46.61
43217;BME280;60511;42.686;23.300;2023-02-28T03:03:10;95174.81;;;21.60;46.57
43217;BME280;60511;42.686;23.300;2023-02-28T03:05:18;95185.19;;;21.71;46.61
43217;BME280;60511;42.686;23.300;2023-02-28T03:07:20;95008.66;;;20.59;45.15
43217;BME280;60511;42.686;23.300;2023-02-28T03:09:24;95016.94;;;20.75;43.18
43217;BME280;60511;42.686;23.300;2023-02-28T03:11:25;95162.03;;;21.49;46.73
43217;BME280;60511;42.686;23.300;2023-02-28T03:18:59;95203.59;;;22.11;44.55
43217;BME280;60511;42.686;23.300;2023-02-28T03:23:59;95225.28;;;22.14;44.14
43217;BME280;60511;42.686;23.300;2023-02-28T03:26:07;95205.44;;;22.19;42.54
43217;BME280;60511;42.686;23.300;2023-02-28T03:28:59;95171.59;;;21.88;43.26
43217;BME280;60511;42.686;23.300;2023-02-28T03:30:55;95178.69;;;21.93;43.77
43217;BME280;60511;42.686;23.300;2023-02-28T03:33:09;95213.59;;;22.10;42.24
43217;BME280;60511;42.686;23.300;2023-02-28T03:35:23;95195.66;;;21.93;44.29
43217;BME280;60511;42.686;23.300;2023-02-28T03:37:25;95224.97;;;22.16;41.94
43217;BME280;60511;42.686;23.300;2023-02-28T03:39:59;95190.31;;;22.05;42.52
43217;BME280;60511;42.686;23.300;2023-02-28T03:42:07;95188.72;;;22.04;42.05
43217;BME280;60511;42.686;23.300;2023-02-28T03:44:14;95220.38;;;22.16;42.21
43217;BME280;60511;42.686;23.300;2023-02-28T03:46:18;95223.00;;;22.04;41.80
43217;BME280;60511;42.686;23.300;2023-02-28T03:48:27;95219.25;;;21.96;43.03
43217;BME280;60511;42.686;23.300;2023-02-28T03:50:36;95179.00;;;21.40;44.07
43217;BME280;60511;42.686;23.300;2023-02-28T03:55:04;95226.53;;;21.75;46.12
43217;BME280;60511;42.686;23.300;2023-02-28T03:57:27;95225.22;;;21.60;45.07
43217;BME280;60511;42.686;23.300;2023-02-28T03:59:36;95255.56;;;21.31;46.81
43217;BME280;60511;42.686;23.300;2023-02-28T04:01:44;95234.63;;;21.45;46.51
43217;BME280;60511;42.686;23.300;2023-02-28T04:03:45;95208.69;;;21.32;45.74
43217;BME280;60511;42.686;23.300;2023-02-28T04:05:50;95241.09;;;21.53;46.20
43217;BME280;60511;42.686;23.300;2023-02-28T04:07:51;95210.72;;;21.43;45.67
43217;BME280;60511;42.686;23.300;2023-02-28T04:09:54;95235.09;;;21.47;47.42
43217;BME280;60511;42.686;23.300;2023-02-28T04:11:54;95241.44;;;21.42;45.32
43217;BME280;60511;42.686;23.300;2023-02-28T04:13:57;95225.00;;;21.26;46.10
43217;BME280;60511;42.686;23.300;2023-02-28T04:15:58;95221.91;;;21.54;45.97
43217;BME280;60511;42.686;23.300;2023-02-28T04:17:59;95235.94;;;21.69;45.64
43217;BME280;60511;42.686;23.300;2023-02-28T04:20:01;95193.06;;;21.55;45.52
43217;BME280;60511;42.686;23.300;2023-02-28T04:22:01;95205.63;;;21.72;45.71
43217;BME280;60511;42.686;23.300;2023-02-28T04:24:04;95206.38;;;21.51;45.40
43217;BME280;60511;42.686;23.300;2023-02-28T04:26:04;95204.81;;;21.50;45.16
43217;BME280;60511;42.686;23.300;2023-02-28T04:28:06;95224.09;;;21.82;44.41
43217;BME280;60511;42.686;23.300;2023-02-28T04:30:07;95057.22;;;20.93;43.35
43217;BME280;60511;42.686;23.300;2023-02-28T04:32:09;95218.00;;;22.15;41.31
43217;BME280;60511;42.686;23.300;2023-02-28T04:34:09;95117.41;;;21.39;43.28
43217;BME280;60511;42.686;23.300;2023-02-28T04:36:11;95239.84;;;22.22;42.24
43217;BME280;60511;42.686;23.300;2023-02-28T04:38:13;95230.44;;;22.07;43.55
43217;BME280;60511;42.686;23.300;2023-02-28T04:40:13;95243.91;;;22.07;41.84
43217;BME280;60511;42.686;23.300;2023-02-28T04:42:16;95209.06;;;22.02;42.06
43217;BME280;60511;42.686;23.300;2023-02-28T04:44:17;95205.44;;;21.98;42.39
43217;BME280;60511;42.686;23.300;2023-02-28T04:46:17;95094.75;;;21.19;42.86
43217;BME280;60511;42.686;23.300;2023-02-28T04:48:18;95192.69;;;21.86;41.11
43217;BME280;60511;42.686;23.300;2023-02-28T04:50:19;95205.97;;;21.91;42.55
43217;BME280;60511;42.686;23.300;2023-02-28T04:52:19;95224.69;;;21.87;42.30
43217;BME280;60511;42.686;23.300;2023-02-28T04:54:20;95237.00;;;21.97;45.12
43217;BME280;60511;42.686;23.300;2023-02-28T04:56:22;95173.94;;;21.48;43.99
43217;BME280;60511;42.686;23.300;2023-02-28T04:58:22;95228.56;;;21.78;43.01
43217;BME280;60511;42.686;23.300;2023-02-28T05:00:24;95141.75;;;21.21;43.51
43217;BME280;60511;42.686;23.300;2023-02-28T05:02:25;95209.28;;;21.46;43.75
43217;BME280;60511;42.686;23.300;2023-02-28T05:04:25;95267.50;;;21.89;44.46
43217;BME280;60511;42.686;23.300;2023-02-28T05:06:27;95256.63;;;21.77;44.49
43217;BME280;60511;42.686;23.300;2023-02-28T05:08:28;95176.59;;;21.18;45.48
43217;BME280;60511;42.686;23.300;2023-02-28T05:10:31;95210.72;;;21.43;44.88
43217;BME280;60511;42.686;23.300;2023-02-28T05:12:32;95252.63;;;21.62;43.88
43217;BME280;60511;42.686;23.300;2023-02-28T05:14:32;95242.22;;;21.52;45.40
43217;BME280;60511;42.686;23.300;2023-02-28T05:16:34;95261.47;;;21.62;46.02
43217;BME280;60511;42.686;23.300;2023-02-28T05:18:34;95250.69;;;21.62;43.68
43217;BME280;60511;42.686;23.300;2023-02-28T05:20:35;95257.28;;;21.74;45.56
43217;BME280;60511;42.686;23.300;2023-02-28T05:22:35;95241.78;;;21.71;46.09
43217;BME280;60511;42.686;23.300;2023-02-28T05:24:35;95264.91;;;21.72;45.74
43217;BME280;60511;42.686;23.300;2023-02-28T05:26:38;95262.34;;;21.75;45.19
43217;BME280;60511;42.686;23.300;2023-02-28T05:28:39;95279.91;;;21.81;44.55
43217;BME280;60511;42.686;23.300;2023-02-28T05:30:40;95272.94;;;21.51;45.34
43217;BME280;60511;42.686;23.300;2023-02-28T05:32:41;95285.53;;;21.67;45.71
43217;BME280;60511;42.686;23.300;2023-02-28T05:34:44;95219.81;;;21.21;46.29
43217;BME280;60511;42.686;23.300;2023-02-28T05:36:44;95289.50;;;21.70;45.38
43217;BME280;60511;42.686;23.300;2023-02-28T05:38:48;95289.59;;;21.82;44.63
43217;BME280;60511;42.686;23.300;2023-02-28T05:40:49;95136.91;;;21.06;43.24
43217;BME280;60511;42.686;23.300;2023-02-28T05:42:52;95271.75;;;21.90;42.49
43217;BME280;60511;42.686;23.300;2023-02-28T05:44:52;95275.25;;;21.91;42.37
43217;BME280;60511;42.686;23.300;2023-02-28T05:46:53;95238.22;;;21.58;45.13
43217;BME280;60511;42.686;23.300;2023-02-28T05:48:53;95166.50;;;21.15;42.47
43217;BME280;60511;42.686;23.300;2023-02-28T05:50:53;95177.31;;;21.36;42.53
43217;BME280;60511;42.686;23.300;2023-02-28T05:52:54;95306.09;;;22.02;42.49
43217;BME280;60511;42.686;23.300;2023-02-28T05:54:54;95302.63;;;22.01;42.44
43217;BME280;60511;42.686;23.300;2023-02-28T05:56:55;95304.06;;;21.99;42.48
43217;BME280;60511;42.686;23.300;2023-02-28T05:58:55;95299.47;;;21.99;42.91
43217;BME280;60511;42.686;23.300;2023-02-28T06:00:59;95299.25;;;22.04;43.96
43217;BME280;60511;42.686;23.300;2023-02-28T06:03:00;95290.63;;;21.90;43.65
43217;BME280;60511;42.686;23.300;2023-02-28T06:05:02;95300.06;;;21.75;44.88
43217;BME280;60511;42.686;23.300;2023-02-28T06:07:02;95252.94;;;21.60;43.18
43217;BME280;60511;42.686;23.300;2023-02-28T06:09:06;95288.13;;;21.85;45.01
43217;BME280;60511;42.686;23.300;2023-02-28T06:11:06;95288.31;;;21.80;46.41
43217;BME280;60511;42.686;23.300;2023-02-28T06:13:07;95253.31;;;21.41;44.45
43217;BME280;60511;42.686;23.300;2023-02-28T06:15:15;95299.91;;;21.80;45.84
43217;BME280;60511;42.686;23.300;2023-02-28T06:17:16;95265.53;;;21.48;46.51
43217;BME280;60511;42.686;23.300;2023-02-28T06:19:17;95264.22;;;21.54;44.87
43217;BME280;60511;42.686;23.300;2023-02-28T06:21:17;95258.94;;;21.57;44.78
43217;BME280;60511;42.686;23.300;2023-02-28T06:23:18;95279.44;;;21.50;45.91
43217;BME280;60511;42.686;23.300;2023-02-28T06:25:18;95128.25;;;20.62;46.75
43217;BME280;60511;42.686;23.300;2023-02-28T06:27:19;95296.28;;;21.76;44.53
43217;BME280;60511;42.686;23.300;2023-02-28T06:29:19;95277.63;;;21.62;46.50
43217;BME280;60511;42.686;23.300;2023-02-28T06:31:20;95235.94;;;21.30;46.29
43217;BME280;60511;42.686;23.300;2023-02-28T06:33:20;95282.41;;;21.10;48.53
43217;BME280;60511;42.686;23.300;2023-02-28T06:35:21;95226.75;;;20.93;48.87
43217;BME280;60511;42.686;23.300;2023-02-28T06:37:22;95290.88;;;21.76;44.13
43217;BME280;60511;42.686;23.300;2023-02-28T06:39:25;95313.94;;;22.16;42.77
43217;BME280;60511;42.686;23.300;2023-02-28T06:41:26;95308.28;;;22.08;43.98
43217;BME280;60511;42.686;23.300;2023-02-28T06:43:32;95291.31;;;22.08;43.41
43217;BME280;60511;42.686;23.300;2023-02-28T06:45:33;95274.28;;;21.95;44.00
43217;BME280;60511;42.686;23.300;2023-02-28T06:47:33;95280.34;;;22.13;42.18
43217;BME280;60511;42.686;23.300;2023-02-28T06:49:35;95306.69;;;22.37;41.37
43217;BME280;60511;42.686;23.300;2023-02-28T06:51:37;95276.63;;;22.26;41.81
43217;BME280;60511;42.686;23.300;2023-02-28T06:53:38;95299.63;;;22.45;41.40
43217;BME280;60511;42.686;23.300;2023-02-28T06:55:39;95208.13;;;21.77;41.60
43217;BME280;60511;42.686;23.300;2023-02-28T06:57:39;95295.50;;;22.48;40.19
43217;BME280;60511;42.686;23.300;2023-02-28T06:59:39;95293.91;;;22.46;41.38
43217;BME280;60511;42.686;23.300;2023-02-28T07:01:40;95308.78;;;22.53;41.52
43217;BME280;60511;42.686;23.300;2023-02-28T07:03:42;95316.03;;;22.61;40.92
43217;BME280;60511;42.686;23.300;2023-02-28T07:05:42;95311.75;;;22.60;40.96
43217;BME280;60511;42.686;23.300;2023-02-28T07:07:43;95301.47;;;22.53;41.80
43217;BME280;60511;42.686;23.300;2023-02-28T07:09:46;95310.66;;;22.73;40.74
43217;BME280;60511;42.686;23.300;2023-02-28T07:11:46;95318.31;;;22.71;41.26
43217;BME280;60511;42.686;23.300;2023-02-28T07:13:47;95295.06;;;22.45;41.65
43217;BME280;60511;42.686;23.300;2023-02-28T07:15:54;95311.03;;;22.51;43.17
43217;BME280;60511;42.686;23.300;2023-02-28T07:17:55;95289.47;;;22.21;43.19
43217;BME280;60511;42.686;23.300;2023-02-28T07:19:56;95317.03;;;22.35;43.17
43217;BME280;60511;42.686;23.300;2023-02-28T07:21:56;95178.16;;;21.27;43.57
43217;BME280;60511;42.686;23.300;2023-02-28T07:23:57;95267.25;;;22.03;43.70
43217;BME280;60511;42.686;23.300;2023-02-28T07:25:58;95287.13;;;22.19;42.53
43217;BME280;60511;42.686;23.300;2023-02-28T07:27:58;95325.19;;;22.48;39.87
43217;BME280;60511;42.686;23.300;2023-02-28T07:30:00;95277.16;;;21.90;43.80
43217;BME280;60511;42.686;23.300;2023-02-28T07:32:01;95300.09;;;21.96;43.91
43217;BME280;60511;42.686;23.300;2023-02-28T07:34:03;95330.22;;;21.98;46.31
43217;BME280;60511;42.686;23.300;2023-02-28T07:36:09;95330.44;;;22.14;43.34
43217;BME280;60511;42.686;23.300;2023-02-28T07:38:13;95319.91;;;22.30;43.18
43217;BME280;60511;42.686;23.300;2023-02-28T07:40:14;95288.94;;;22.06;44.31
43217;BME280;60511;42.686;23.300;2023-02-28T07:42:14;95207.59;;;21.62;43.03
43217;BME280;60511;42.686;23.300;2023-02-28T07:44:15;95317.09;;;22.48;39.38
43217;BME280;60511;42.686;23.300;2023-02-28T07:46:16;95307.03;;;22.06;43.42
43217;BME280;60511;42.686;23.300;2023-02-28T07:48:17;95326.88;;;22.31;43.64
43217;BME280;60511;42.686;23.300;2023-02-28T07:50:17;95336.38;;;22.37;42.89
43217;BME280;60511;42.686;23.300;2023-02-28T07:52:18;95306.59;;;22.25;42.47
43217;BME280;60511;42.686;23.300;2023-02-28T07:54:18;95310.09;;;22.46;41.97
43217;BME280;60511;42.686;23.300;2023-02-28T07:56:18;95318.31;;;22.71;36.67
43217;BME280;60511;42.686;23.300;2023-02-28T07:58:19;95289.31;;;22.68;35.67
43217;BME280;60511;42.686;23.300;2023-02-28T08:00:19;95315.66;;;22.83;35.25
43217;BME280;60511;42.686;23.300;2023-02-28T08:02:20;95313.22;;;22.91;35.74
43217;BME280;60511;42.686;23.300;2023-02-28T08:04:20;95315.38;;;22.97;35.01
43217;BME280;60511;42.686;23.300;2023-02-28T08:06:22;95313.00;;;22.96;34.82
43217;BME280;60511;42.686;23.300;2023-02-28T08:08:24;95303.66;;;22.93;35.19
43217;BME280;60511;42.686;23.300;2023-02-28T08:10:29;95314.41;;;23.02;34.87
43217;BME280;60511;42.686;23.300;2023-02-28T08:12:29;95317.56;;;23.04;35.80
43217;BME280;60511;42.686;23.300;2023-02-28T08:14:30;95309.53;;;22.95;34.19
43217;BME280;60511;42.686;23.300;2023-02-28T08:16:30;95289.81;;;22.82;35.17
43217;BME280;60511;42.686;23.300;2023-02-28T08:18:32;95320.72;;;23.06;34.95
43217;BME280;60511;42.686;23.300;2023-02-28T08:20:32;95270.56;;;22.84;34.11
43217;BME280;60511;42.686;23.300;2023-02-28T08:22:32;95185.84;;;22.31;35.11
43217;BME280;60511;42.686;23.300;2023-02-28T08:24:33;95252.31;;;22.69;34.44
43217;BME280;60511;42.686;23.300;2023-02-28T08:26:33;95290.94;;;22.94;34.04
43217;BME280;60511;42.686;23.300;2023-02-28T08:28:34;95329.84;;;23.14;33.53
43217;BME280;60511;42.686;23.300;2023-02-28T08:30:34;95334.25;;;23.18;34.56
43217;BME280;60511;42.686;23.300;2023-02-28T08:32:35;95281.34;;;22.84;34.45
43217;BME280;60511;42.686;23.300;2023-02-28T08:34:35;95294.50;;;23.06;34.34
43217;BME280;60511;42.686;23.300;2023-02-28T08:36:35;95332.78;;;23.21;34.83
43217;BME280;60511;42.686;23.300;2023-02-28T08:38:37;95316.34;;;23.14;33.99
43217;BME280;60511;42.686;23.300;2023-02-28T08:40:37;95309.03;;;23.14;34.23
43217;BME280;60511;42.686;23.300;2023-02-28T08:42:38;95286.13;;;22.99;33.53
43217;BME280;60511;42.686;23.300;2023-02-28T08:44:38;95315.66;;;23.17;33.89
43217;BME280;60511;42.686;23.300;2023-02-28T08:46:39;95301.94;;;23.10;33.78
43217;BME280;60511;42.686;23.300;2023-02-28T08:48:39;95334.38;;;23.22;34.06
43217;BME280;60511;42.686;23.300;2023-02-28T08:50:40;95327.50;;;23.24;33.56
43217;BME280;60511;42.686;23.300;2023-02-28T08:52:42;95170.44;;;22.31;33.81
43217;BME280;60511;42.686;23.300;2023-02-28T08:54:43;95214.00;;;22.42;33.54
43217;BME280;60511;42.686;23.300;2023-02-28T08:56:44;95295.63;;;23.05;33.25
43217;BME280;60511;42.686;23.300;2023-02-28T08:58:45;95280.41;;;23.01;33.46
43217;BME280;60511;42.686;23.300;2023-02-28T09:00:46;95329.09;;;23.25;33.38
43217;BME280;60511;42.686;23.300;2023-02-28T09:02:46;95278.81;;;23.00;33.75
43217;BME280;60511;42.686;23.300;2023-02-28T09:04:47;95332.91;;;23.24;33.41
43217;BME280;60511;42.686;23.300;2023-02-28T09:06:47;95329.44;;;23.24;33.24
43217;BME280;60511;42.686;23.300;2023-02-28T09:08:49;95338.19;;;23.21;33.61
43217;BME280;60511;42.686;23.300;2023-02-28T09:10:50;95336.94;;;23.18;33.48
43217;BME280;60511;42.686;23.300;2023-02-28T09:12:51;95254.00;;;22.73;33.26
43217;BME280;60511;42.686;23.300;2023-02-28T09:14:53;95279.94;;;22.99;33.47
43217;BME280;60511;42.686;23.300;2023-02-28T09:16:53;95276.41;;;22.86;33.35
43217;BME280;60511;42.686;23.300;2023-02-28T09:18:55;95232.25;;;22.57;33.47
43217;BME280;60511;42.686;23.300;2023-02-28T09:20:55;95318.16;;;23.22;33.30
43217;BME280;60511;42.686;23.300;2023-02-28T09:22:56;95295.75;;;23.09;33.14
43217;BME280;60511;42.686;23.300;2023-02-28T09:24:56;95279.94;;;22.99;33.13
43217;BME280;60511;42.686;23.300;2023-02-28T09:26:57;95292.94;;;23.05;33.11
43217;BME280;60511;42.686;23.300;2023-02-28T09:28:57;95304.41;;;23.15;33.13
43217;BME280;60511;42.686;23.300;2023-02-28T09:30:59;95291.78;;;23.06;32.89
43217;BME280;60511;42.686;23.300;2023-02-28T09:32:59;95309.81;;;23.15;32.91
43217;BME280;60511;42.686;23.300;2023-02-28T09:35:00;95149.63;;;22.19;32.98
43217;BME280;60511;42.686;23.300;2023-02-28T09:37:00;95282.91;;;23.06;32.99
43217;BME280;60511;42.686;23.300;2023-02-28T09:39:00;95323.47;;;23.31;33.01
43217;BME280;60511;42.686;23.300;2023-02-28T09:41:04;95312.34;;;23.32;33.15
43217;BME280;60511;42.686;23.300;2023-02-28T09:43:11;95290.47;;;23.13;32.94
43217;BME280;60511;42.686;23.300;2023-02-28T09:45:23;95317.88;;;23.36;32.96
43217;BME280;60511;42.686;23.300;2023-02-28T09:47:34;95298.94;;;23.23;33.24
43217;BME280;60511;42.686;23.300;2023-02-28T09:49:42;95310.41;;;23.33;32.59
43217;BME280;60511;42.686;23.300;2023-02-28T09:53:51;95238.88;;;22.93;32.80
43217;BME280;60511;42.686;23.300;2023-02-28T09:55:55;95287.03;;;23.49;32.99
43217;BME280;60511;42.686;23.300;2023-02-28T09:57:58;95277.22;;;23.32;33.15
43217;BME280;60511;42.686;23.300;2023-02-28T10:04:43;95307.84;;;23.36;33.15
43217;BME280;60511;42.686;23.300;2023-02-28T10:06:52;95276.06;;;23.21;32.82
43217;BME280;60511;42.686;23.300;2023-02-28T10:09:02;95297.63;;;23.42;32.80
43217;BME280;60511;42.686;23.300;2023-02-28T10:11:06;95257.72;;;23.14;32.73
43217;BME280;60511;42.686;23.300;2023-02-28T10:15:40;95288.38;;;23.43;32.68
43217;BME280;60511;42.686;23.300;2023-02-28T10:17:43;95306.94;;;23.44;32.45
43217;BME280;60511;42.686;23.300;2023-02-28T10:20:02;95257.88;;;23.30;32.30
43217;BME280;60511;42.686;23.300;2023-02-28T10:22:15;95115.22;;;22.37;32.67
43217;BME280;60511;42.686;23.300;2023-02-28T10:26:21;95267.44;;;23.40;32.34
43217;BME280;60511;42.686;23.300;2023-02-28T10:28:21;95210.69;;;23.03;32.65
43217;BME280;60511;42.686;23.300;2023-02-28T10:30:22;95272.84;;;23.40;32.49
43217;BME280;60511;42.686;23.300;2023-02-28T10:32:33;95270.47;;;23.38;32.55
43217;BME280;60511;42.686;23.300;2023-02-28T10:34:34;95248.72;;;23.22;32.61
43217;BME280;60511;42.686;23.300;2023-02-28T10:36:34;95238.84;;;23.26;32.55
43217;BME280;60511;42.686;23.300;2023-02-28T10:38:37;95268.56;;;23.39;32.64
43217;BME280;60511;42.686;23.300;2023-02-28T10:40:39;95257.41;;;23.40;32.74
43217;BME280;60511;42.686;23.300;2023-02-28T10:42:40;95255.28;;;23.46;32.37
43217;BME280;60511;42.686;23.300;2023-02-28T10:44:40;95226.94;;;23.40;32.53
43217;BME280;60511;42.686;23.300;2023-02-28T10:46:41;95120.88;;;22.69;32.41
43217;BME280;60511;42.686;23.300;2023-02-28T10:49:02;95203.28;;;23.24;32.50
43217;BME280;60511;42.686;23.300;2023-02-28T10:51:04;95208.00;;;23.27;32.42
43217;BME280;60511;42.686;23.300;2023-02-28T10:55:25;95213.88;;;23.42;32.41
43217;BME280;60511;42.686;23.300;2023-02-28T10:57:26;95214.84;;;23.37;32.47
43217;BME280;60511;42.686;23.300;2023-02-28T10:59:30;95196.19;;;23.32;32.52
43217;BME280;60511;42.686;23.300;2023-02-28T11:01:41;95201.72;;;23.48;32.65
43217;BME280;60511;42.686;23.300;2023-02-28T11:03:41;95175.50;;;23.24;32.48
43217;BME280;60511;42.686;23.300;2023-02-28T11:05:42;95078.47;;;22.57;32.35
43217;BME280;60511;42.686;23.300;2023-02-28T11:07:51;95224.44;;;23.59;32.48
43217;BME280;60511;42.686;23.300;2023-02-28T11:09:55;95211.25;;;23.58;32.76
43217;BME280;60511;42.686;23.300;2023-02-28T11:11:56;95202.81;;;23.59;32.34
43217;BME280;60511;42.686;23.300;2023-02-28T11:14:03;95193.81;;;23.55;32.37
43217;BME280;60511;42.686;23.300;2023-02-28T11:16:06;95196.50;;;23.55;32.44
43217;BME280;60511;42.686;23.300;2023-02-28T11:20:21;95090.75;;;22.92;31.98
43217;BME280;60511;42.686;23.300;2023-02-28T11:22:26;95155.78;;;23.36;32.29
43217;BME280;60511;42.686;23.300;2023-02-28T11:26:43;95192.56;;;23.53;32.46
43217;BME280;60511;42.686;23.300;2023-02-28T11:28:43;95201.13;;;23.55;32.48
43217;BME280;60511;42.686;23.300;2023-02-28T11:30:44;95200.56;;;23.61;32.57
43217;BME280;60511;42.686;23.300;2023-02-28T11:32:48;95160.81;;;23.50;32.32
43217;BME280;60511;42.686;23.300;2023-02-28T11:37:18;95162.97;;;23.56;32.26
43217;BME280;60511;42.686;23.300;2023-02-28T11:39:19;95149.69;;;23.39;32.54